Time;durP1;ratioP1;P1;durP2;ratioP2;P2;SDS_P1;SDS_P2;PMS_P1;PMS_P2;Temp;Humidity;BMP_temperature;BMP_pressure;BME280_temperature;BME280_humidity;BME280_pressure;Samples;Min_cycle;Max_cycle;Signal;HPM_P1;HPM_P2
2022/05/03 00:00:08;;;;;;;3.13;2.87;;;14.50;85.60;14.70;96233.00;;;;5051586;28;20276;-85
2022/05/03 00:02:48;;;;;;;3.47;3.27;;;14.40;85.40;14.70;96223.00;;;;5054528;28;20220;-85
2022/05/03 00:05:30;;;;;;;3.53;3.30;;;14.40;85.50;14.70;96228.00;;;;5064299;28;20288;-85
2022/05/03 00:08:05;;;;;;;2.63;2.50;;;14.40;85.60;14.70;96218.00;;;;5066443;28;20274;-85
2022/05/03 00:10:44;;;;;;;3.53;3.27;;;14.30;85.50;14.60;96212.00;;;;5054014;28;20214;-85
2022/05/03 00:13:19;;;;;;;3.60;3.30;;;14.30;85.50;14.60;96210.00;;;;5056241;28;20741;-85
2022/05/03 00:15:49;;;;;;;3.30;3.10;;;14.20;85.50;14.50;96203.00;;;;5067978;28;20299;-85
2022/05/03 00:18:17;;;;;;;3.87;3.57;;;14.20;85.60;14.50;96203.00;;;;5058363;28;20216;-85
2022/05/03 00:20:47;;;;;;;3.23;3.03;;;14.20;85.70;14.40;96199.00;;;;5058490;28;20216;-85
2022/05/03 00:23:15;;;;;;;3.70;3.40;;;14.10;85.70;14.40;96194.00;;;;5065860;28;20819;-84
2022/05/03 00:25:44;;;;;;;3.90;3.70;;;14.10;85.80;14.30;96189.00;;;;5052132;28;20764;-85
2022/05/03 00:28:12;;;;;;;3.40;3.20;;;14.10;85.80;14.30;96193.00;;;;5052077;28;20672;-85
2022/05/03 00:30:41;;;;;;;3.47;3.27;;;13.90;85.70;14.30;96185.00;;;;5060460;28;20216;-85
2022/05/03 00:33:09;;;;;;;4.20;3.80;;;14.00;85.70;14.20;96191.00;;;;5066914;28;20231;-85
2022/05/03 00:35:39;;;;;;;3.83;3.53;;;14.00;85.60;14.20;96186.00;;;;5056334;28;20200;-85
2022/05/03 00:38:07;;;;;;;3.67;3.37;;;13.90;85.80;14.20;96187.00;;;;5059794;28;20597;-85
2022/05/03 00:40:36;;;;;;;4.03;3.43;;;13.90;85.70;14.20;96181.00;;;;5059590;28;20198;-85
2022/05/03 00:43:15;;;;;;;3.77;3.37;;;13.90;85.70;14.10;96175.00;;;;5056019;28;20365;-85
2022/05/03 00:45:49;;;;;;;4.50;4.10;;;13.80;85.50;14.10;96170.00;;;;5061063;28;20215;-85
2022/05/03 00:48:42;;;;;;;4.10;3.80;;;13.80;85.50;14.00;96170.00;;;;5065663;28;20209;-85
2022/05/03 00:51:16;;;;;;;4.03;3.70;;;13.70;85.50;14.00;96165.00;;;;5060184;28;20226;-86
2022/05/03 00:54:04;;;;;;;3.77;3.47;;;13.70;85.60;13.90;96166.00;;;;5064564;28;20195;-85
2022/05/03 00:56:49;;;;;;;4.13;3.83;;;13.70;85.50;13.90;96173.00;;;;5065775;28;20626;-85
2022/05/03 00:59:46;;;;;;;4.13;3.83;;;13.60;85.50;13.80;96168.00;;;;5053198;28;20267;-85
2022/05/03 01:02:19;;;;;;;3.90;3.60;;;13.60;85.60;13.80;96170.00;;;;5052485;28;20217;-86
2022/05/03 01:04:57;;;;;;;3.97;3.67;;;13.50;85.60;13.80;96181.00;;;;5062815;28;20230;-85
2022/05/03 01:07:33;;;;;;;3.40;3.20;;;13.50;85.50;13.70;96172.00;;;;5064238;28;20220;-85
2022/05/03 01:10:07;;;;;;;3.77;3.47;;;13.30;85.40;13.70;96171.00;;;;5067462;28;20208;-85
2022/05/03 01:12:57;;;;;;;3.50;3.20;;;13.40;85.70;13.70;96182.00;;;;5080038;22;20449;-84
2022/05/03 01:15:29;;;;;;;3.53;3.33;;;13.40;85.90;13.60;96181.00;;;;5054721;28;20193;-84
2022/05/03 01:18:10;;;;;;;3.93;3.63;;;13.40;85.90;13.60;96179.00;;;;5036962;28;20283;-85
2022/05/03 01:20:50;;;;;;;4.07;3.77;;;13.30;85.90;13.60;96178.00;;;;5049031;28;20279;-84
2022/05/03 01:23:49;;;;;;;4.20;3.90;;;13.30;85.90;13.50;96179.00;;;;5047978;28;20215;-85
2022/05/03 01:27:27;;;;;;;4.53;4.13;;;13.30;86.10;13.50;96180.00;;;;5029661;28;20221;-85
2022/05/03 01:30:00;;;;;;;3.93;3.63;;;13.30;86.10;13.40;96175.00;;;;4949723;28;20203;-85
2022/05/03 01:32:28;;;;;;;4.30;3.87;;;13.20;85.80;13.40;96177.00;;;;5044825;28;20642;-84
2022/05/03 01:34:58;;;;;;;3.93;3.63;;;13.20;85.80;13.40;96171.00;;;;5040640;28;20283;-87
2022/05/03 01:37:58;;;;;;;3.67;3.47;;;13.10;85.80;13.40;96172.00;;;;5052364;28;20303;-87
2022/05/03 01:40:42;;;;;;;3.83;3.53;;;13.10;85.80;13.30;96174.00;;;;5043159;28;20280;-87
2022/05/03 01:43:14;;;;;;;4.17;3.87;;;13.10;85.80;13.30;96175.00;;;;5047280;28;20207;-87
2022/05/03 01:46:03;;;;;;;4.57;4.17;;;13.00;85.70;13.20;96174.00;;;;5044532;28;20220;-86
2022/05/03 01:52:02;;;;;;;4.47;4.07;;;13.00;86.00;13.10;96162.00;;;;5044067;28;20201;-86
2022/05/03 01:55:08;;;;;;;4.00;3.70;;;12.90;86.00;13.10;96166.00;;;;5050648;28;20283;-87
2022/05/03 01:58:05;;;;;;;3.53;3.33;;;12.80;86.00;13.00;96165.00;;;;5052679;28;20307;-87
2022/05/03 02:00:36;;;;;;;4.33;4.00;;;12.90;86.10;13.00;96165.00;;;;5042889;28;20193;-87
2022/05/03 02:03:27;;;;;;;5.27;3.73;;;12.80;86.10;13.00;96162.00;;;;5039617;28;20220;-87
2022/05/03 02:06:03;;;;;;;4.27;3.87;;;12.80;86.10;12.90;96159.00;;;;5051762;28;20231;-87
2022/05/03 02:08:55;;;;;;;4.63;4.23;;;12.70;86.10;12.90;96148.00;;;;5045370;28;20301;-88
2022/05/03 02:11:49;;;;;;;4.10;3.77;;;12.70;86.20;12.90;96151.00;;;;5033883;28;20271;-86
2022/05/03 02:14:47;;;;;;;3.60;3.40;;;12.70;86.30;12.90;96151.00;;;;5032947;28;20560;-86
2022/05/03 02:17:35;;;;;;;4.20;3.90;;;12.70;86.40;12.90;96157.00;;;;5033795;28;20225;-86
2022/05/03 02:20:32;;;;;;;3.50;3.30;;;12.70;86.40;12.80;96151.00;;;;5034319;28;20212;-86
2022/05/03 02:23:18;;;;;;;3.53;3.27;;;12.70;86.40;12.80;96166.00;;;;5037662;28;20291;-86
2022/05/03 02:26:18;;;;;;;3.60;3.30;;;12.60;86.20;12.80;96163.00;;;;5053900;28;20232;-86
2022/05/03 02:28:54;;;;;;;3.60;3.30;;;12.60;86.10;12.80;96154.00;;;;5054026;28;20288;-85
2022/05/03 02:31:33;;;;;;;4.10;3.80;;;12.60;86.30;12.80;96149.00;;;;5053251;28;20709;-86
2022/05/03 02:34:17;;;;;;;4.50;4.20;;;12.50;86.30;12.80;96154.00;;;;5053420;28;20188;-87
2022/05/03 02:36:56;;;;;;;4.17;3.87;;;12.50;86.50;12.80;96158.00;;;;5053828;28;20308;-86
2022/05/03 02:39:31;;;;;;;3.93;3.63;;;12.50;86.70;12.80;96163.00;;;;5053986;28;20192;-86
2022/05/03 02:42:01;;;;;;;3.67;3.37;;;12.50;86.90;12.70;96169.00;;;;5053704;28;20279;-86
2022/05/03 02:44:30;;;;;;;3.77;3.47;;;12.50;87.10;12.80;96173.00;;;;5053630;28;20565;-86
2022/05/03 02:47:06;;;;;;;4.03;3.73;;;12.50;87.30;12.80;96162.00;;;;5052201;28;20220;-86
2022/05/03 02:49:58;;;;;;;3.83;3.53;;;12.50;87.40;12.80;96160.00;;;;5053302;28;20275;-86
2022/05/03 02:52:39;;;;;;;3.93;3.63;;;12.50;87.50;12.80;96161.00;;;;5053145;28;20188;-86
2022/05/03 02:55:18;;;;;;;4.17;3.87;;;12.60;87.60;12.90;96168.00;;;;5052611;28;20185;-86
2022/05/03 02:57:55;;;;;;;4.00;3.60;;;12.60;87.70;12.90;96158.00;;;;5053634;28;20628;-85
2022/05/03 03:03:32;;;;;;;3.43;3.13;;;12.60;87.80;13.00;96159.00;;;;5052807;28;20251;-85
2022/05/03 03:06:01;;;;;;;4.13;3.83;;;12.70;87.90;13.00;96161.00;;;;5052659;28;20223;-86
2022/05/03 03:08:43;;;;;;;3.97;3.57;;;12.70;88.50;13.10;96161.00;;;;5051168;28;20815;-86
2022/05/03 03:11:23;;;;;;;5.90;4.30;;;12.70;87.90;13.10;96167.00;;;;5050073;28;20188;-86
2022/05/03 03:14:07;;;;;;;4.07;3.77;;;12.80;88.10;13.20;96166.00;;;;5051779;28;20298;-85
2022/05/03 03:16:41;;;;;;;3.90;3.60;;;12.80;88.10;13.20;96168.00;;;;5052220;28;20218;-86
2022/05/03 03:19:35;;;;;;;4.27;3.90;;;12.80;88.20;13.20;96168.00;;;;5052166;28;20258;-86
2022/05/03 03:22:03;;;;;;;3.97;3.67;;;12.90;88.30;13.20;96167.00;;;;5053391;28;20211;-86
2022/05/03 03:24:37;;;;;;;4.53;4.20;;;12.90;88.30;13.20;96172.00;;;;5053026;28;20279;-86
2022/05/03 03:27:08;;;;;;;4.40;4.00;;;12.90;88.40;13.30;96165.00;;;;5052997;28;20247;-86
2022/05/03 03:29:38;;;;;;;4.53;4.20;;;12.90;88.30;13.30;96172.00;;;;5052640;28;20272;-86
2022/05/03 03:32:09;;;;;;;4.10;3.80;;;13.00;88.30;13.30;96166.00;;;;5052721;28;20184;-86
2022/05/03 03:34:38;;;;;;;4.27;3.97;;;13.00;88.30;13.40;96168.00;;;;5053034;28;20181;-85
2022/05/03 03:37:08;;;;;;;3.70;3.40;;;13.00;88.40;13.40;96162.00;;;;5053072;28;20663;-86
2022/05/03 03:39:37;;;;;;;4.40;4.10;;;13.10;88.50;13.40;96156.00;;;;5052165;28;20291;-86
2022/05/03 03:42:08;;;;;;;4.57;4.27;;;13.10;88.40;13.50;96161.00;;;;5052143;28;20216;-84
2022/05/03 03:44:35;;;;;;;4.60;4.30;;;13.10;88.30;13.50;96164.00;;;;5052319;28;20204;-84
2022/05/03 03:47:04;;;;;;;4.23;3.83;;;13.10;88.30;13.50;96163.00;;;;5051673;28;20220;-83
2022/05/03 03:49:34;;;;;;;4.20;3.90;;;13.20;88.30;13.60;96166.00;;;;5052323;28;20232;-84
2022/05/03 03:52:03;;;;;;;3.90;3.60;;;13.20;88.20;13.60;96171.00;;;;5051524;28;20232;-84
2022/05/03 03:54:31;;;;;;;4.33;4.03;;;13.20;88.10;13.60;96167.00;;;;5052276;28;20639;-83
2022/05/03 03:57:00;;;;;;;4.57;4.17;;;13.20;88.10;13.70;96162.00;;;;5051509;28;20395;-84
2022/05/03 03:59:30;;;;;;;4.50;4.20;;;13.30;88.10;13.70;96168.00;;;;5051438;28;20227;-84
2022/05/03 04:01:58;;;;;;;4.20;3.90;;;13.30;88.10;13.70;96163.00;;;;5037400;28;20228;-84
2022/05/03 04:04:31;;;;;;;4.67;3.97;;;13.30;88.10;13.80;96165.00;;;;5031991;28;20934;-84
2022/05/03 04:06:59;;;;;;;6.10;4.00;;;13.30;88.00;13.80;96176.00;;;;5032115;28;20223;-84
2022/05/03 04:09:27;;;;;;;4.03;3.53;;;13.40;88.10;13.80;96165.00;;;;5031989;28;20734;-87
2022/05/03 04:11:55;;;;;;;3.73;3.43;;;13.40;88.20;13.90;96172.00;;;;5031294;28;20296;-85
2022/05/03 04:14:35;;;;;;;5.33;3.80;;;13.40;88.20;13.90;96176.00;;;;5032062;28;20288;-84
2022/05/03 04:17:03;;;;;;;4.20;3.90;;;13.40;88.20;13.90;96170.00;;;;5031408;28;20286;-84
2022/05/03 04:19:30;;;;;;;4.23;3.93;;;13.50;88.30;13.90;96167.00;;;;5041557;28;20247;-86
2022/05/03 04:22:12;;;;;;;4.13;3.83;;;13.50;89.10;14.00;96174.00;;;;5041656;28;20241;-85
2022/05/03 04:24:40;;;;;;;4.17;3.77;;;13.50;88.40;14.10;96175.00;;;;5044815;28;20204;-85
2022/05/03 04:27:07;;;;;;;4.90;4.37;;;13.60;88.40;14.10;96177.00;;;;5045925;28;20685;-84
2022/05/03 04:29:36;;;;;;;5.10;4.67;;;13.60;88.40;14.10;96179.00;;;;5045466;28;20239;-84
2022/05/03 04:32:04;;;;;;;4.23;3.93;;;13.60;88.30;14.20;96179.00;;;;5046903;28;20200;-85
2022/05/03 04:34:31;;;;;;;4.80;4.40;;;13.60;88.30;14.20;96179.00;;;;5052166;28;20200;-84
2022/05/03 04:37:00;;;;;;;5.13;4.73;;;13.70;88.30;14.30;96184.00;;;;5046768;28;20300;-84
2022/05/03 04:39:27;;;;;;;4.60;4.30;;;13.70;88.30;14.30;96177.00;;;;5049031;28;20199;-84
2022/05/03 04:41:54;;;;;;;4.73;4.37;;;13.70;88.20;14.30;96180.00;;;;5049165;28;20212;-82
2022/05/03 04:44:21;;;;;;;4.73;4.37;;;13.70;88.20;14.40;96179.00;;;;5050408;28;20265;-81
2022/05/03 04:46:50;;;;;;;4.77;4.43;;;13.80;88.30;14.40;96186.00;;;;5034574;28;20241;-83
2022/05/03 04:49:17;;;;;;;4.83;4.27;;;13.90;88.40;14.40;96193.00;;;;5044788;28;20280;-82
2022/05/03 04:51:44;;;;;;;4.53;4.23;;;13.80;88.40;14.50;96198.00;;;;5050915;28;20208;-83
2022/05/03 04:54:11;;;;;;;5.00;4.60;;;13.90;88.60;14.50;96189.00;;;;5036343;28;20255;-85
2022/05/03 04:56:39;;;;;;;5.90;4.90;;;13.90;88.80;14.60;96190.00;;;;5048542;28;20701;-85
2022/05/03 04:59:33;;;;;;;4.73;4.33;;;14.00;89.00;14.60;96202.00;;;;5050608;28;20216;-84
2022/05/03 05:02:14;;;;;;;5.03;4.63;;;14.00;89.00;14.70;96203.00;;;;5047035;28;20250;-86
2022/05/03 05:04:41;;;;;;;4.60;4.20;;;14.10;89.20;14.70;96206.00;;;;5044305;28;20231;-86
2022/05/03 05:10:27;;;;;;;5.00;4.60;;;14.20;89.40;14.80;96202.00;;;;5049405;28;20196;-85
2022/05/03 05:13:02;;;;;;;4.60;4.30;;;14.20;89.30;14.90;96206.00;;;;5035477;28;20220;-84
2022/05/03 05:15:57;;;;;;;4.67;4.37;;;14.30;89.30;15.00;96204.00;;;;5051059;28;20258;-86
2022/05/03 05:18:25;;;;;;;4.83;4.53;;;14.40;89.40;15.00;96210.00;;;;5043688;28;20228;-85
2022/05/03 05:21:34;;;;;;;5.53;5.03;;;14.40;89.40;15.10;96210.00;;;;5055729;28;20232;-85
2022/05/03 05:24:01;;;;;;;5.10;4.60;;;14.50;89.40;15.20;96215.00;;;;5014335;28;20220;-85
2022/05/03 05:26:28;;;;;;;4.73;4.43;;;14.50;89.70;15.30;96212.00;;;;5054666;28;20247;-84
2022/05/03 05:28:57;;;;;;;5.67;5.17;;;14.60;89.80;15.30;96215.00;;;;5050947;28;20196;-82
2022/05/03 05:31:24;;;;;;;5.83;5.33;;;14.60;89.60;15.40;96219.00;;;;5046009;28;20212;-86
2022/05/03 05:33:53;;;;;;;5.73;5.30;;;14.70;89.40;15.40;96217.00;;;;5047017;28;20732;-85
2022/05/03 05:36:20;;;;;;;5.93;5.50;;;14.70;89.20;15.50;96221.00;;;;5046244;28;20307;-84
2022/05/03 05:39:08;;;;;;;6.13;5.53;;;14.80;89.30;15.60;96223.00;;;;5047160;28;21187;-85
2022/05/03 05:42:01;;;;;;;6.03;5.60;;;14.80;89.30;15.70;96220.00;;;;5039161;28;20674;-85
2022/05/03 05:44:31;;;;;;;6.43;5.93;;;14.90;89.40;15.70;96217.00;;;;5053067;28;20220;-85
2022/05/03 05:47:30;;;;;;;7.43;6.73;;;15.00;89.70;15.80;96227.00;;;;5050348;28;20220;-84
2022/05/03 05:50:34;;;;;;;8.10;7.30;;;15.10;89.70;15.90;96222.00;;;;4959071;28;20210;-85
2022/05/03 05:53:34;;;;;;;7.30;6.63;;;15.10;89.70;15.90;96222.00;;;;5046531;28;20193;-85
2022/05/03 05:56:07;;;;;;;7.83;7.13;;;15.20;89.60;16.00;96219.00;;;;5049247;28;20856;-84
2022/05/03 05:58:34;;;;;;;8.00;7.30;;;15.20;89.60;16.00;96235.00;;;;5047927;28;20204;-83
2022/05/03 06:01:01;;;;;;;8.13;7.33;;;15.30;89.70;16.10;96229.00;;;;5042312;28;20635;-84
2022/05/03 06:03:29;;;;;;;8.30;7.50;;;15.30;89.70;16.20;96222.00;;;;5045665;28;20220;-84
2022/05/03 06:05:58;;;;;;;9.57;8.67;;;15.40;89.70;16.20;96234.00;;;;5052808;28;20243;-84
2022/05/03 06:08:25;;;;;;;9.30;8.40;;;15.40;89.60;16.30;96230.00;;;;5030112;28;20228;-83
2022/05/03 06:10:56;;;;;;;10.37;9.37;;;15.50;89.80;16.40;96238.00;;;;5038060;28;20193;-83
2022/05/03 06:13:23;;;;;;;10.17;9.27;;;15.60;89.90;16.40;96233.00;;;;5049954;28;20209;-82
2022/05/03 06:15:50;;;;;;;10.77;9.77;;;15.60;89.80;16.50;96237.00;;;;5057431;28;20239;-83
2022/05/03 06:18:18;;;;;;;9.93;8.93;;;15.70;89.70;16.50;96233.00;;;;5053436;28;20205;-84
2022/05/03 06:20:45;;;;;;;9.17;8.30;;;15.70;89.50;16.60;96236.00;;;;5052746;28;20233;-83
2022/05/03 06:23:15;;;;;;;9.37;8.27;;;15.80;89.30;16.60;96229.00;;;;5055279;28;20768;-84
2022/05/03 06:25:42;;;;;;;8.63;7.83;;;15.80;89.30;16.70;96230.00;;;;5054537;28;20634;-84
2022/05/03 06:28:10;;;;;;;9.00;8.10;;;15.80;89.60;16.80;96237.00;;;;5054222;28;20197;-84
2022/05/03 06:30:37;;;;;;;9.70;8.77;;;15.90;89.80;16.80;96240.00;;;;5053053;28;20227;-84
2022/05/03 06:33:05;;;;;;;9.53;8.63;;;16.00;89.80;16.90;96236.00;;;;5044572;28;20212;-84
2022/05/03 06:35:32;;;;;;;9.73;8.80;;;16.00;89.80;17.00;96245.00;;;;5041776;28;20201;-84
2022/05/03 06:37:59;;;;;;;10.10;9.17;;;16.10;90.00;17.00;96239.00;;;;5041020;28;20564;-84
2022/05/03 06:40:29;;;;;;;11.10;10.00;;;16.10;90.00;17.10;96253.00;;;;5044761;28;20653;-84
2022/05/03 06:42:56;;;;;;;10.33;9.33;;;16.20;90.10;17.20;96254.00;;;;5047362;28;20232;-84
2022/05/03 06:45:23;;;;;;;11.37;9.83;;;16.30;90.00;17.30;96260.00;;;;5052419;28;20200;-84
2022/05/03 06:47:51;;;;;;;11.03;10.03;;;16.40;90.00;17.30;96257.00;;;;5038746;28;20358;-84
2022/05/03 06:50:18;;;;;;;10.57;9.57;;;16.40;90.00;17.40;96259.00;;;;5046025;28;20196;-84
2022/05/03 06:52:46;;;;;;;9.97;9.07;;;16.50;90.00;17.40;96266.00;;;;5054294;28;20189;-84
2022/05/03 06:55:13;;;;;;;10.20;9.20;;;16.60;90.00;17.50;96278.00;;;;5052205;28;20243;-84
2022/05/03 06:57:41;;;;;;;10.00;9.07;;;16.60;89.70;17.50;96278.00;;;;5040048;28;20274;-84
2022/05/03 07:00:10;;;;;;;9.77;8.80;;;16.60;89.70;17.60;96279.00;;;;5051727;28;20560;-84
2022/05/03 07:02:38;;;;;;;11.13;10.10;;;16.70;89.70;17.60;96275.00;;;;5039664;28;20681;-84
2022/05/03 07:05:07;;;;;;;10.40;9.33;;;16.70;89.70;17.70;96274.00;;;;5051231;28;20578;-84
2022/05/03 07:07:35;;;;;;;11.57;9.93;;;16.80;89.70;17.70;96282.00;;;;5051506;28;20296;-84
2022/05/03 07:10:03;;;;;;;11.17;9.97;;;16.80;89.90;17.80;96285.00;;;;5056197;28;20204;-83
2022/05/03 07:12:32;;;;;;;11.57;10.37;;;16.90;90.00;17.90;96281.00;;;;5081426;22;20323;-79
2022/05/03 07:15:01;;;;;;;12.70;11.27;;;17.00;90.10;18.00;96279.00;;;;5057459;28;20200;-80
2022/05/03 07:22:58;;;;;;;10.93;9.83;;;17.20;90.20;18.20;96276.00;;;;5043538;28;20712;-81
2022/05/03 07:25:27;;;;;;;11.50;9.90;;;17.30;90.30;18.30;96282.00;;;;5066456;22;20926;-85
2022/05/03 07:27:54;;;;;;;11.90;10.60;;;17.30;90.30;18.40;96274.00;;;;5053464;28;20249;-86
2022/05/03 07:30:23;;;;;;;11.17;9.90;;;17.40;90.30;18.50;96279.00;;;;5052801;28;20258;-87
2022/05/03 07:32:50;;;;;;;10.73;9.67;;;17.50;90.70;18.70;96274.00;;;;5048233;28;20204;-87
2022/05/03 07:35:17;;;;;;;11.67;10.53;;;17.60;90.40;18.80;96283.00;;;;5051284;28;20224;-87
2022/05/03 07:37:46;;;;;;;12.40;11.10;;;17.70;90.50;18.90;96279.00;;;;5034087;28;20221;-86
2022/05/03 07:40:13;;;;;;;13.33;11.73;;;17.80;90.60;19.10;96278.00;;;;5052402;28;20619;-85
2022/05/03 07:42:40;;;;;;;13.07;11.63;;;17.90;90.60;19.20;96285.00;;;;5052104;28;20209;-86
2022/05/03 07:45:09;;;;;;;13.83;10.67;;;18.00;90.60;19.40;96287.00;;;;5048600;28;20657;-88
2022/05/03 07:47:38;;;;;;;11.57;10.37;;;18.10;90.50;19.50;96288.00;;;;5050504;28;20311;-86
2022/05/03 07:50:07;;;;;;;13.13;11.50;;;18.20;90.50;19.60;96298.00;;;;5051783;28;20195;-86
2022/05/03 07:52:36;;;;;;;12.33;11.03;;;18.30;90.50;19.80;96295.00;;;;5040726;28;20235;-85
2022/05/03 07:55:05;;;;;;;13.73;10.87;;;18.50;90.70;19.90;96300.00;;;;5050167;28;20193;-85
2022/05/03 07:57:33;;;;;;;11.37;10.27;;;18.60;90.70;20.00;96296.00;;;;5042379;28;20209;-86
2022/05/03 08:00:00;;;;;;;12.80;10.53;;;18.70;91.00;20.20;96297.00;;;;5043576;28;20636;-86
2022/05/03 08:02:28;;;;;;;11.93;10.73;;;18.80;90.60;20.30;96301.00;;;;5042613;28;20640;-86
2022/05/03 08:04:56;;;;;;;11.40;10.27;;;18.90;90.60;20.40;96306.00;;;;5044710;28;20304;-86
2022/05/03 08:07:24;;;;;;;12.23;11.00;;;19.10;90.50;20.50;96304.00;;;;5043846;28;20300;-87
2022/05/03 08:09:53;;;;;;;11.40;10.20;;;19.20;90.80;20.60;96309.00;;;;5039099;28;20213;-87
2022/05/03 08:12:21;;;;;;;11.20;10.03;;;19.30;90.50;20.70;96309.00;;;;5042939;28;20792;-86
2022/05/03 08:14:48;;;;;;;11.27;10.13;;;19.40;90.50;20.70;96315.00;;;;5051447;28;20312;-87
2022/05/03 08:17:15;;;;;;;11.40;10.20;;;19.50;90.30;20.80;96312.00;;;;5050978;28;20784;-87
2022/05/03 08:19:42;;;;;;;10.27;9.27;;;19.60;90.20;21.00;96323.00;;;;5046429;28;20649;-87
2022/05/03 08:22:11;;;;;;;10.27;9.23;;;19.70;90.00;21.10;96324.00;;;;5051244;28;20703;-87
2022/05/03 08:24:38;;;;;;;9.57;8.67;;;19.80;90.00;21.30;96317.00;;;;5051027;28;20222;-86
2022/05/03 08:27:06;;;;;;;9.73;8.87;;;19.90;89.70;21.40;96324.00;;;;5050851;28;20246;-86
2022/05/03 08:29:33;;;;;;;9.83;8.47;;;20.00;89.40;21.50;96331.00;;;;5048973;28;20192;-86
2022/05/03 08:32:01;;;;;;;8.97;8.17;;;20.20;89.00;21.70;96332.00;;;;5050587;28;20192;-86
2022/05/03 08:34:29;;;;;;;8.87;7.97;;;20.30;88.20;21.70;96331.00;;;;5050027;28;20215;-84
2022/05/03 08:42:29;;;;;;;8.83;7.50;;;20.60;87.90;22.00;96335.00;;;;5051100;28;20290;-87
2022/05/03 08:44:57;;;;;;;8.03;7.23;;;20.70;88.00;22.10;96329.00;;;;5050290;28;20219;-86
2022/05/03 08:47:28;;;;;;;6.73;6.10;;;20.70;87.20;22.20;96343.00;;;;5051226;28;20599;-86
2022/05/03 08:50:04;;;;;;;6.80;6.20;;;20.80;85.80;22.20;96346.00;;;;5050651;28;20194;-86
2022/05/03 08:52:39;;;;;;;6.67;6.20;;;20.90;85.30;22.30;96343.00;;;;5031496;28;20284;-86
2022/05/03 08:55:09;;;;;;;7.97;7.17;;;21.00;86.00;22.50;96338.00;;;;5030708;28;20191;-86
2022/05/03 08:57:36;;;;;;;7.50;6.80;;;21.10;86.30;22.50;96341.00;;;;5031313;28;20229;-86
2022/05/03 09:00:06;;;;;;;6.90;6.20;;;21.20;85.90;22.70;96336.00;;;;5047657;28;20283;-87
2022/05/03 09:02:33;;;;;;;6.40;5.83;;;21.30;85.20;22.80;96334.00;;;;5051353;28;20258;-86
2022/05/03 09:05:00;;;;;;;7.20;6.60;;;21.40;84.50;22.90;96334.00;;;;5050344;28;20220;-87
2022/05/03 09:07:28;;;;;;;5.77;5.37;;;21.50;84.70;23.00;96327.00;;;;5049974;28;20220;-86
2022/05/03 09:09:56;;;;;;;6.40;5.80;;;21.70;83.80;23.10;96332.00;;;;5038360;28;20630;-86
2022/05/03 09:12:27;;;;;;;6.00;5.40;;;21.80;84.10;23.20;96328.00;;;;5035223;28;20275;-88
2022/05/03 09:14:56;;;;;;;4.57;4.23;;;21.90;82.00;23.30;96332.00;;;;5049614;28;20223;-86
2022/05/03 09:17:39;;;;;;;6.87;5.17;;;22.00;82.20;23.50;96326.00;;;;5049427;28;20252;-87
2022/05/03 09:25:54;;;;;;;3.30;3.00;;;22.50;81.20;24.00;96332.00;;;;5044330;28;20282;-86
2022/05/03 09:28:24;;;;;;;4.20;3.90;;;22.70;80.80;24.10;96331.00;;;;5051050;28;20244;-87
2022/05/03 09:30:53;;;;;;;3.77;3.40;;;22.80;80.60;24.30;96340.00;;;;5050389;28;20780;-86
2022/05/03 09:33:23;;;;;;;3.50;3.20;;;23.00;79.40;24.40;96330.00;;;;5051366;28;20661;-88
2022/05/03 09:35:51;;;;;;;3.60;3.30;;;23.10;77.70;24.60;96331.00;;;;5050891;28;20890;-87
2022/05/03 09:38:19;;;;;;;2.50;2.40;;;23.30;77.60;24.80;96335.00;;;;5047822;28;20295;-87
2022/05/03 09:40:48;;;;;;;2.20;2.10;;;23.50;77.60;24.90;96333.00;;;;5036087;28;20279;-86
2022/05/03 09:43:17;;;;;;;2.47;2.27;;;23.70;77.40;25.10;96330.00;;;;5039195;28;20660;-90
2022/05/03 09:45:46;;;;;;;2.53;2.33;;;23.90;78.10;25.20;96334.00;;;;5048642;28;20199;-87
2022/05/03 09:48:13;;;;;;;2.00;1.90;;;24.10;77.50;25.30;96334.00;;;;5037932;28;20255;-87
2022/05/03 09:50:43;;;;;;;2.13;2.03;;;24.40;75.60;25.50;96340.00;;;;5048413;28;20207;-87
2022/05/03 09:53:16;;;;;;;2.13;2.03;;;24.60;75.80;25.70;96327.00;;;;5049744;28;20199;-88
2022/05/03 09:55:45;;;;;;;2.10;2.00;;;24.90;73.00;26.00;96332.00;;;;5042888;28;20813;-88
2022/05/03 09:58:15;;;;;;;1.90;1.80;;;25.20;74.60;26.20;96335.00;;;;5050517;28;20258;-89
2022/05/03 10:00:46;;;;;;;1.70;1.60;;;25.40;75.20;26.50;96333.00;;;;5046264;28;20618;-88
2022/05/03 10:03:14;;;;;;;1.40;1.30;;;25.70;73.60;26.60;96335.00;;;;5046688;28;20421;-87
2022/05/03 10:05:45;;;;;;;1.60;1.50;;;26.00;72.30;26.70;96333.00;;;;5038478;28;20280;-88
2022/05/03 10:08:17;;;;;;;1.80;1.70;;;26.10;70.00;26.90;96336.00;;;;5045169;28;20666;-88
2022/05/03 10:10:44;;;;;;;1.70;1.60;;;26.40;71.70;27.10;96343.00;;;;5050014;28;20195;-88
2022/05/03 10:13:14;;;;;;;1.30;1.20;;;26.60;70.80;27.30;96332.00;;;;5047569;28;20300;-88
2022/05/03 10:21:33;;;;;;;1.30;1.20;;;27.40;68.50;27.90;96336.00;;;;5044397;28;20208;-87
2022/05/03 10:24:06;;;;;;;2.22;1.20;;;27.60;66.90;28.00;96335.00;;;;5048260;28;20228;-89
2022/05/03 10:27:01;;;;;;;1.50;1.40;;;27.80;64.10;28.00;96323.00;;;;5048984;28;20239;-88
2022/05/03 10:29:31;;;;;;;1.30;1.30;;;27.90;54.60;27.90;96321.00;;;;5047583;28;20704;-88
2022/05/03 10:32:03;;;;;;;1.42;1.33;;;27.90;59.70;27.70;96323.00;;;;5045655;28;20283;-86
2022/05/03 10:34:52;;;;;;;1.40;1.40;;;27.80;58.80;27.50;96324.00;;;;5042900;28;20566;-88
2022/05/03 10:37:36;;;;;;;1.50;1.48;;;27.80;57.10;27.40;96316.00;;;;5046638;28;20221;-86
2022/05/03 10:40:12;;;;;;;1.80;1.70;;;27.70;59.60;27.30;96316.00;;;;5051494;28;20227;-86
2022/05/03 10:42:40;;;;;;;1.60;1.50;;;27.60;59.10;27.30;96320.00;;;;5053049;28;20273;-87
2022/05/03 10:45:10;;;;;;;2.10;1.90;;;27.60;60.60;27.20;96314.00;;;;5037931;28;20275;-87
2022/05/03 10:47:50;;;;;;;1.83;1.73;;;27.60;59.90;27.20;96312.00;;;;5054161;28;20315;-87
2022/05/03 10:50:32;;;;;;;1.77;1.67;;;27.50;57.80;27.10;96307.00;;;;5053704;28;20426;-88
2022/05/03 10:53:27;;;;;;;1.87;1.70;;;27.40;57.50;26.90;96305.00;;;;5052500;28;20203;-88
2022/05/03 10:56:20;;;;;;;2.00;1.90;;;27.20;57.40;26.80;96309.00;;;;5049035;28;20221;-89
2022/05/03 10:59:05;;;;;;;2.47;2.37;;;27.00;56.20;26.60;96304.00;;;;5048079;28;20262;-87
2022/05/03 11:01:33;;;;;;;2.40;2.20;;;26.80;58.70;26.50;96297.00;;;;5049451;28;20181;-87
2022/05/03 11:04:11;;;;;;;2.30;2.20;;;26.50;58.50;26.30;96295.00;;;;5039969;28;20670;-87
2022/05/03 11:06:47;;;;;;;1.90;1.80;;;26.30;56.10;26.20;96293.00;;;;5048584;28;20244;-87
2022/05/03 11:09:18;;;;;;;1.47;1.37;;;26.10;58.60;26.00;96289.00;;;;5054413;28;20181;-88
2022/05/03 11:12:07;;;;;;;1.97;1.87;;;25.90;58.00;25.70;96284.00;;;;5052695;28;20633;-87
2022/05/03 11:15:05;;;;;;;1.80;1.70;;;25.60;55.80;25.40;96275.00;;;;5049252;28;20555;-88
2022/05/03 11:17:43;;;;;;;2.00;1.80;;;25.30;55.40;25.20;96276.00;;;;5023026;28;20583;-87
2022/05/03 11:20:11;;;;;;;1.70;1.60;;;25.10;56.30;25.00;96278.00;;;;5052993;28;20213;-88
2022/05/03 11:22:39;;;;;;;1.70;1.60;;;24.80;57.50;24.80;96271.00;;;;5049902;28;20258;-87
2022/05/03 11:25:13;;;;;;;1.70;1.60;;;24.60;57.30;24.50;96270.00;;;;5053083;28;20263;-89
2022/05/03 11:27:41;;;;;;;1.70;1.60;;;24.30;57.20;24.30;96263.00;;;;5044779;28;20235;-87
2022/05/03 11:30:11;;;;;;;1.60;1.50;;;24.10;57.60;24.20;96262.00;;;;5044092;28;20210;-87
2022/05/03 11:32:41;;;;;;;1.90;1.80;;;23.90;57.60;24.00;96260.00;;;;5048389;28;20203;-88
2022/05/03 11:35:15;;;;;;;1.70;1.60;;;23.70;58.30;23.90;96250.00;;;;5047589;28;20763;-90
2022/05/03 11:37:52;;;;;;;1.90;1.80;;;23.60;59.20;23.80;96244.00;;;;5043189;28;20252;-87
2022/05/03 11:40:24;;;;;;;1.97;1.60;;;23.50;58.30;23.70;96242.00;;;;5051885;28;20676;-87
2022/05/03 11:42:54;;;;;;;1.70;1.60;;;23.30;58.70;23.60;96247.00;;;;5036137;28;20197;-86
2022/05/03 11:45:22;;;;;;;2.33;2.13;;;23.20;59.40;23.50;96245.00;;;;5050189;28;20319;-87
2022/05/03 11:47:52;;;;;;;1.90;1.80;;;23.10;59.10;23.40;96245.00;;;;5048824;28;20628;-86
2022/05/03 11:56:00;;;;;;;2.53;2.33;;;22.80;59.90;23.10;96235.00;;;;5035517;28;20221;-88
2022/05/03 11:58:30;;;;;;;2.30;2.10;;;22.70;60.40;23.10;96234.00;;;;5036707;28;20815;-87